createdAt,value
2022-09-20T00:01:32.301Z,69.80
2022-09-20T00:04:05.831Z,70.00
2022-09-20T00:06:34.795Z,70.20
2022-09-20T00:09:03.262Z,69.90
2022-09-20T00:11:33.222Z,70.00
2022-09-20T00:14:03.058Z,70.30
2022-09-20T00:16:34.771Z,70.20
2022-09-20T00:19:06.639Z,69.90
2022-09-20T00:21:37.892Z,69.90
2022-09-20T00:24:06.273Z,69.70
2022-09-20T00:26:33.877Z,70.00
2022-09-20T00:29:01.950Z,70.00
2022-09-20T00:31:29.925Z,69.80
2022-09-20T00:34:16.730Z,70.10
2022-09-20T00:36:45.653Z,70.00
2022-09-20T00:39:15.337Z,70.10
2022-09-20T00:41:43.709Z,70.20
2022-09-20T00:44:45.894Z,70.00
2022-09-20T00:47:16.098Z,70.10
2022-09-20T00:49:43.856Z,69.90
2022-09-20T00:52:11.539Z,70.10
2022-09-20T00:54:39.223Z,70.10
2022-09-20T00:57:06.755Z,70.00
2022-09-20T00:59:38.499Z,70.10
2022-09-20T01:02:09.014Z,69.80
2022-09-20T01:04:40.352Z,70.00
2022-09-20T01:07:09.390Z,70.20
2022-09-20T01:09:36.465Z,70.30
2022-09-20T01:12:07.290Z,70.30
2022-09-20T01:14:35.736Z,70.50
2022-09-20T01:17:05.916Z,70.50
2022-09-20T01:20:11.516Z,70.60
2022-09-20T01:23:09.611Z,70.70
2022-09-20T01:25:58.715Z,70.60
2022-09-20T01:28:28.239Z,70.60
2022-09-20T01:31:09.239Z,70.70
2022-09-20T01:33:45.870Z,70.60
2022-09-20T01:36:26.796Z,70.80
2022-09-20T01:39:17.198Z,70.60
2022-09-20T01:42:05.723Z,70.60
2022-09-20T01:45:00.917Z,70.80
2022-09-20T01:47:30.714Z,70.70
2022-09-20T01:50:22.317Z,70.60
2022-09-20T01:53:08.206Z,70.50
2022-09-20T01:55:47.442Z,70.70
2022-09-20T01:58:36.428Z,70.50
2022-09-20T02:01:09.848Z,70.30
2022-09-20T02:04:02.012Z,70.60
2022-09-20T02:07:01.414Z,70.60
2022-09-20T02:09:34.205Z,70.60
2022-09-20T02:12:28.526Z,70.50
2022-09-20T02:15:22.168Z,70.50
2022-09-20T02:18:28.594Z,70.50
2022-09-20T02:21:29.846Z,70.50
2022-09-20T02:24:39.024Z,71.50
2022-09-20T02:27:30.799Z,70.70
2022-09-20T02:30:10.362Z,70.60
2022-09-20T02:32:59.298Z,70.40
2022-09-20T02:35:41.575Z,70.70
2022-09-20T02:38:36.332Z,70.80
2022-09-20T02:41:21.241Z,70.80
2022-09-20T02:44:03.270Z,70.70
2022-09-20T02:46:39.631Z,70.80
2022-09-20T02:49:38.368Z,70.80
2022-09-20T02:52:24.898Z,70.90
2022-09-20T02:55:08.860Z,70.90
2022-09-20T02:58:26.659Z,71.00
2022-09-20T03:01:05.567Z,71.20
2022-09-20T03:03:56.113Z,71.00
2022-09-20T03:06:51.135Z,71.00
2022-09-20T03:09:47.643Z,71.00
2022-09-20T03:12:45.316Z,71.00
2022-09-20T03:15:39.467Z,71.10
2022-09-20T03:18:46.238Z,71.10
2022-09-20T03:21:38.349Z,71.20
2022-09-20T03:24:43.281Z,71.40
2022-09-20T03:27:30.982Z,71.50
2022-09-20T03:30:04.948Z,71.40
2022-09-20T03:32:44.152Z,71.40
2022-09-20T03:35:31.841Z,71.20
2022-09-20T03:38:01.957Z,71.30
2022-09-20T03:40:51.359Z,71.20
2022-09-20T03:43:50.036Z,71.40
2022-09-20T03:46:21.757Z,71.30
2022-09-20T03:49:15.026Z,71.40
2022-09-20T03:51:48.013Z,71.20
2022-09-20T03:54:30.343Z,71.40
2022-09-20T03:57:11.998Z,71.20
2022-09-20T03:59:51.547Z,71.20
2022-09-20T04:02:40.229Z,71.30
2022-09-20T04:05:16.816Z,71.30
2022-09-20T04:07:50.158Z,71.40
2022-09-20T04:10:20.688Z,71.50
2022-09-20T04:13:08.496Z,71.60
2022-09-20T04:15:46.356Z,71.70
2022-09-20T04:18:25.380Z,71.70
2022-09-20T04:21:14.803Z,71.60
2022-09-20T04:23:47.583Z,71.80
2022-09-20T04:26:20.509Z,71.90
2022-09-20T04:28:55.847Z,71.90
2022-09-20T04:31:38.438Z,71.90
2022-09-20T04:34:15.391Z,72.00
2022-09-20T04:37:05.052Z,72.10
2022-09-20T04:39:48.336Z,72.10
2022-09-20T04:43:03.180Z,72.20
2022-09-20T04:45:33.624Z,72.30
2022-09-20T04:48:31.523Z,72.10
2022-09-20T04:51:25.824Z,72.00
2022-09-20T04:54:36.149Z,72.10
2022-09-20T04:57:24.519Z,72.10
2022-09-20T05:00:04.871Z,72.10
2022-09-20T05:03:02.513Z,72.00
2022-09-20T05:05:36.915Z,72.00
2022-09-20T05:08:29.124Z,72.40
2022-09-20T05:10:59.330Z,71.90
2022-09-20T05:14:05.776Z,72.00
2022-09-20T05:17:00.521Z,72.10
2022-09-20T05:19:59.890Z,72.00
2022-09-20T05:23:06.739Z,71.90
2022-09-20T05:25:53.172Z,72.00
2022-09-20T05:28:45.343Z,71.90
2022-09-20T05:31:20.493Z,72.00
2022-09-20T05:34:18.127Z,72.00
2022-09-20T05:37:07.764Z,72.20
2022-09-20T05:40:05.326Z,72.20
2022-09-20T05:42:42.262Z,71.90
2022-09-20T05:45:40.403Z,72.00
2022-09-20T05:48:40.536Z,71.80
2022-09-20T05:51:16.465Z,71.90
2022-09-20T05:54:07.668Z,71.80
2022-09-20T05:56:37.699Z,71.90
2022-09-20T05:59:13.918Z,71.90
2022-09-20T06:01:58.440Z,71.80
2022-09-20T06:04:40.357Z,71.90
2022-09-20T06:07:17.180Z,72.10
2022-09-20T06:10:15.452Z,72.10
2022-09-20T06:13:20.718Z,72.10
2022-09-20T06:16:06.999Z,72.20
2022-09-20T06:18:49.344Z,72.10
2022-09-20T06:21:59.813Z,73.00
2022-09-20T06:25:02.959Z,72.20
2022-09-20T06:27:39.867Z,72.20
2022-09-20T06:30:16.798Z,72.30
2022-09-20T06:33:21.164Z,72.30
2022-09-20T06:36:27.162Z,72.10
2022-09-20T06:39:30.277Z,72.10
2022-09-20T06:41:58.495Z,72.00
2022-09-20T06:44:26.397Z,72.20
2022-09-20T06:46:54.430Z,72.30
2022-09-20T06:49:22.675Z,72.30
2022-09-20T06:51:52.719Z,72.40
2022-09-20T06:54:21.118Z,72.50
2022-09-20T06:56:50.535Z,72.70
2022-09-20T06:59:17.567Z,72.60
2022-09-20T07:01:44.735Z,72.50
2022-09-20T07:04:11.863Z,72.50
2022-09-20T07:06:39.952Z,72.30
2022-09-20T07:09:08.276Z,72.30
2022-09-20T07:11:35.649Z,72.30
2022-09-20T07:14:03.356Z,72.30
2022-09-20T07:16:31.507Z,72.40
2022-09-20T07:18:58.549Z,72.50
2022-09-20T07:21:26.699Z,72.50
2022-09-20T07:23:54.188Z,72.10
2022-09-20T07:26:27.949Z,72.00
2022-09-20T07:28:55.600Z,72.00
2022-09-20T07:31:24.260Z,71.70
2022-09-20T07:33:51.780Z,71.40
2022-09-20T07:36:19.074Z,71.60
2022-09-20T07:38:52.382Z,71.60
2022-09-20T07:41:20.468Z,71.40
2022-09-20T07:43:47.743Z,71.60
2022-09-20T07:46:14.764Z,71.50
2022-09-20T07:48:42.536Z,71.40
2022-09-20T07:51:13.812Z,71.50
2022-09-20T07:53:41.933Z,71.30
2022-09-20T07:56:14.275Z,71.40
2022-09-20T07:58:42.464Z,71.50
2022-09-20T08:01:13.480Z,71.60
2022-09-20T08:03:40.842Z,71.70
2022-09-20T08:06:10.950Z,71.50
2022-09-20T08:08:40.828Z,71.50
2022-09-20T08:11:14.445Z,71.60
2022-09-20T08:14:08.827Z,71.80
2022-09-20T08:16:41.719Z,71.60
2022-09-20T08:19:09.655Z,71.50
2022-09-20T08:21:39.929Z,71.40
2022-09-20T08:24:07.035Z,71.40
2022-09-20T08:26:37.790Z,71.30
2022-09-20T08:29:06.040Z,71.30
2022-09-20T08:31:35.692Z,71.60
2022-09-20T08:34:07.244Z,70.90
2022-09-20T08:36:38.321Z,71.00
2022-09-20T08:42:04.932Z,70.80
2022-09-20T08:44:36.543Z,70.70
2022-09-20T08:47:36.089Z,70.90
2022-09-20T08:50:10.011Z,71.20
2022-09-20T08:52:40.389Z,71.10
2022-09-20T08:55:20.696Z,70.80
2022-09-20T08:57:54.030Z,70.30
2022-09-20T09:00:24.291Z,70.70
2022-09-20T09:02:56.080Z,70.20
2022-09-20T09:06:05.565Z,69.70
2022-09-20T09:08:37.916Z,68.30
2022-09-20T09:11:09.663Z,68.10
2022-09-20T09:13:48.227Z,67.80
2022-09-20T09:16:22.664Z,67.90
2022-09-20T09:18:51.892Z,67.70
2022-09-20T09:21:30.311Z,67.90
2022-09-20T09:24:13.299Z,67.90
2022-09-20T09:26:46.428Z,67.50
2022-09-20T09:29:18.907Z,67.70
2022-09-20T09:31:49.249Z,67.20
2022-09-20T09:34:27.039Z,67.60
2022-09-20T09:36:55.597Z,68.60
2022-09-20T09:39:38.611Z,69.20
2022-09-20T09:42:26.047Z,68.80
2022-09-20T09:44:53.785Z,69.70
2022-09-20T09:47:31.327Z,70.50
2022-09-20T09:50:02.685Z,67.80
2022-09-20T09:52:34.136Z,66.40
2022-09-20T09:55:05.435Z,64.50
2022-09-20T09:57:54.109Z,62.80
2022-09-20T10:00:23.705Z,62.40
2022-09-20T10:03:37.341Z,59.70
2022-09-20T10:06:14.244Z,58.70
2022-09-20T10:08:56.428Z,59.90
2022-09-20T10:11:42.179Z,60.00
2022-09-20T10:14:30.251Z,60.20
2022-09-20T10:17:29.677Z,59.80
2022-09-20T10:20:21.314Z,56.70
2022-09-20T10:26:14.142Z,54.80
2022-09-20T10:29:11.703Z,55.50
2022-09-20T10:31:52.753Z,56.10
2022-09-20T10:34:35.527Z,56.10
2022-09-20T10:37:03.732Z,56.70
2022-09-20T10:39:37.432Z,56.10
2022-09-20T10:42:49.016Z,56.20
2022-09-20T10:45:55.926Z,56.20
2022-09-20T10:48:44.555Z,55.60
2022-09-20T10:51:33.501Z,56.30
2022-09-20T10:54:35.798Z,56.90
2022-09-20T10:57:26.210Z,56.80
2022-09-20T11:00:03.307Z,57.40
2022-09-20T11:02:37.095Z,57.60
2022-09-20T11:05:39.050Z,57.70
2022-09-20T11:08:28.743Z,57.30
2022-09-20T11:11:20.990Z,57.60
2022-09-20T11:14:07.194Z,57.60
2022-09-20T11:16:51.126Z,57.00
2022-09-20T11:20:07.198Z,56.70
2022-09-20T11:22:57.287Z,55.50
2022-09-20T11:25:51.932Z,55.00
2022-09-20T11:28:33.527Z,54.40
2022-09-20T11:31:20.724Z,55.50
2022-09-20T11:33:55.367Z,56.20
2022-09-20T11:36:50.424Z,56.60
2022-09-20T11:39:40.089Z,57.20
2022-09-20T11:42:13.750Z,56.90
2022-09-20T11:44:42.410Z,57.00
2022-09-20T11:47:53.789Z,57.30
2022-09-20T11:50:52.240Z,58.10
2022-09-20T11:53:22.339Z,57.20
2022-09-20T11:55:57.487Z,57.20
2022-09-20T11:58:25.855Z,57.70
2022-09-20T12:00:55.595Z,58.00
2022-09-20T12:03:32.448Z,56.80
2022-09-20T12:06:02.998Z,55.40
2022-09-20T12:08:33.869Z,55.90
2022-09-20T12:11:05.008Z,56.40
2022-09-20T12:13:36.570Z,56.20
2022-09-20T12:16:12.861Z,55.20
2022-09-20T12:18:54.239Z,55.40
2022-09-20T12:21:22.768Z,56.10
2022-09-20T12:23:53.854Z,55.40
2022-09-20T12:26:21.965Z,53.40
2022-09-20T12:28:58.859Z,53.70
2022-09-20T12:31:29.850Z,54.00
2022-09-20T12:34:02.017Z,53.80
2022-09-20T12:36:36.277Z,53.50
2022-09-20T12:39:14.379Z,53.30
2022-09-20T12:42:02.984Z,53.50
2022-09-20T12:44:39.613Z,53.40
2022-09-20T12:47:10.900Z,52.90
2022-09-20T12:50:07.198Z,52.70
2022-09-20T12:53:02.508Z,51.70
2022-09-20T12:55:49.797Z,51.50
2022-09-20T12:58:28.809Z,51.80
2022-09-20T13:00:59.873Z,52.80
2022-09-20T13:03:36.592Z,52.80
2022-09-20T13:06:08.938Z,52.50
2022-09-20T13:09:00.899Z,51.70
2022-09-20T13:11:54.635Z,51.20
2022-09-20T13:14:26.258Z,51.70
2022-09-20T13:16:53.318Z,52.50
2022-09-20T13:19:39.124Z,52.80
2022-09-20T13:22:14.329Z,53.60
2022-09-20T13:24:47.192Z,53.80
2022-09-20T13:27:19.924Z,53.90
2022-09-20T13:29:47.210Z,53.20
2022-09-20T13:32:28.924Z,52.30
2022-09-20T13:35:12.406Z,53.40
2022-09-20T13:38:02.086Z,53.00
2022-09-20T13:40:41.418Z,53.80
2022-09-20T13:43:37.516Z,54.90
2022-09-20T13:46:12.189Z,55.30
2022-09-20T13:48:39.582Z,55.90
2022-09-20T13:51:23.939Z,56.30
2022-09-20T13:53:51.801Z,57.00
2022-09-20T13:56:30.560Z,57.40
2022-09-20T13:59:04.387Z,57.80
2022-09-20T14:01:34.865Z,58.00
2022-09-20T14:04:13.370Z,58.00
2022-09-20T14:06:41.071Z,57.90
2022-09-20T14:09:16.475Z,57.50
2022-09-20T14:11:43.742Z,57.10
2022-09-20T14:14:12.890Z,56.60
2022-09-20T14:16:45.308Z,56.90
2022-09-20T14:19:15.619Z,56.60
2022-09-20T14:21:43.693Z,56.20
2022-09-20T14:24:13.882Z,56.40
2022-09-20T14:27:02.242Z,56.00
2022-09-20T14:29:50.539Z,56.10
2022-09-20T14:32:17.639Z,56.40
2022-09-20T14:34:56.298Z,56.80
2022-09-20T14:37:25.954Z,57.40
2022-09-20T14:40:07.386Z,57.70
2022-09-20T14:42:56.321Z,57.90
2022-09-20T14:45:34.030Z,57.70
2022-09-20T14:48:10.297Z,57.90
2022-09-20T14:50:46.364Z,58.10
2022-09-20T14:53:19.524Z,58.90
2022-09-20T14:56:08.091Z,58.20
2022-09-20T14:59:25.025Z,58.50
2022-09-20T15:01:59.340Z,58.70
2022-09-20T15:04:31.809Z,58.70
2022-09-20T15:07:04.790Z,58.50
2022-09-20T15:09:32.346Z,58.10
2022-09-20T15:12:06.712Z,57.60
2022-09-20T15:14:37.908Z,57.40
2022-09-20T15:17:05.592Z,57.40
2022-09-20T15:19:34.917Z,57.30
2022-09-20T15:22:02.258Z,57.30
2022-09-20T15:24:29.227Z,56.90
2022-09-20T15:26:56.442Z,56.90
2022-09-20T15:29:23.516Z,57.10
2022-09-20T15:31:50.608Z,57.00
2022-09-20T15:34:17.894Z,56.90
2022-09-20T15:36:44.958Z,56.00
2022-09-20T15:39:12.327Z,56.00
2022-09-20T15:41:39.612Z,55.80
2022-09-20T15:44:08.129Z,55.80
2022-09-20T15:46:35.423Z,55.40
2022-09-20T15:49:05.844Z,55.00
2022-09-20T15:51:33.474Z,54.30
2022-09-20T15:54:03.540Z,54.00
2022-09-20T15:56:33.533Z,53.80
2022-09-20T15:59:03.736Z,53.80
2022-09-20T16:01:42.289Z,53.70
2022-09-20T16:04:14.860Z,53.50
2022-09-20T16:06:44.010Z,53.60
2022-09-20T16:09:11.969Z,53.60
2022-09-20T16:11:39.857Z,54.10
2022-09-20T16:14:07.051Z,54.50
2022-09-20T16:16:39.934Z,54.90
2022-09-20T16:19:17.677Z,55.30
2022-09-20T16:21:58.862Z,56.60
2022-09-20T16:24:31.876Z,56.50
2022-09-20T16:27:01.297Z,56.70
2022-09-20T16:29:30.147Z,56.90
2022-09-20T16:31:58.749Z,57.10
2022-09-20T16:34:31.482Z,57.30
2022-09-20T16:37:08.872Z,57.10
2022-09-20T16:39:37.346Z,57.40
2022-09-20T16:42:07.540Z,57.60
2022-09-20T16:44:39.923Z,57.70
2022-09-20T16:47:10.604Z,57.90
2022-09-20T16:49:39.111Z,58.10
2022-09-20T16:52:08.092Z,58.60
2022-09-20T16:54:35.951Z,58.90
2022-09-20T16:57:03.371Z,59.00
2022-09-20T16:59:30.558Z,59.30
2022-09-20T17:01:57.659Z,59.70
2022-09-20T17:04:24.813Z,59.90
2022-09-20T17:06:52.662Z,59.80
2022-09-20T17:09:21.499Z,60.20
2022-09-20T17:11:50.364Z,60.40
2022-09-20T17:14:20.065Z,60.20
2022-09-20T17:16:48.130Z,60.70
2022-09-20T17:19:18.718Z,60.80
2022-09-20T17:21:51.349Z,61.00
2022-09-20T17:24:23.546Z,61.00
2022-09-20T17:26:51.202Z,61.00
2022-09-20T17:29:19.494Z,61.00
2022-09-20T17:31:54.545Z,61.30
2022-09-20T17:34:23.931Z,61.30
2022-09-20T17:36:51.018Z,61.40
2022-09-20T17:39:18.877Z,61.60
2022-09-20T17:41:47.821Z,61.30
2022-09-20T17:44:15.961Z,61.70
2022-09-20T17:46:45.162Z,61.90
2022-09-20T17:49:15.262Z,62.10
2022-09-20T17:51:48.327Z,62.40
2022-09-20T17:54:15.905Z,62.50
2022-09-20T17:56:44.360Z,62.60
2022-09-20T17:59:12.404Z,62.70
2022-09-20T18:01:40.776Z,62.80
2022-09-20T18:04:09.255Z,62.80
2022-09-20T18:06:44.493Z,62.80
2022-09-20T18:09:14.940Z,62.90
2022-09-20T18:11:49.158Z,63.00
2022-09-20T18:14:21.203Z,62.80
2022-09-20T18:16:51.154Z,62.80
2022-09-20T18:19:18.445Z,62.80
2022-09-20T18:21:45.507Z,62.60
2022-09-20T18:24:12.681Z,62.70
2022-09-20T18:26:40.599Z,62.80
2022-09-20T18:29:12.924Z,62.90
2022-09-20T18:31:44.748Z,62.90
2022-09-20T18:34:18.471Z,63.10
2022-09-20T18:36:51.749Z,63.10
2022-09-20T18:39:27.910Z,62.80
2022-09-20T18:41:55.911Z,63.20
2022-09-20T18:44:24.603Z,63.20
2022-09-20T18:46:55.304Z,63.20
2022-09-20T18:49:22.666Z,63.30
2022-09-20T18:51:50.064Z,63.20
2022-09-20T18:54:18.018Z,63.10
2022-09-20T18:56:47.933Z,63.10
2022-09-20T18:59:20.602Z,63.10
2022-09-20T19:01:53.716Z,62.80
2022-09-20T19:04:47.900Z,63.00
2022-09-20T19:07:27.772Z,63.40
2022-09-20T19:10:39.125Z,63.40
2022-09-20T19:13:21.376Z,63.20
2022-09-20T19:15:55.360Z,63.30
2022-09-20T19:18:25.544Z,63.20
2022-09-20T19:20:52.530Z,63.30
2022-09-20T19:23:51.941Z,63.50
2022-09-20T19:26:27.866Z,63.70
2022-09-20T19:28:59.872Z,63.80
2022-09-20T19:31:33.655Z,63.70
2022-09-20T19:34:06.801Z,63.70
2022-09-20T19:36:48.555Z,63.50
2022-09-20T19:39:43.566Z,63.40
2022-09-20T19:42:48.735Z,63.70
2022-09-20T19:45:51.162Z,63.80
2022-09-20T19:48:40.859Z,63.80
2022-09-20T19:51:12.740Z,63.70
2022-09-20T19:53:40.641Z,63.70
2022-09-20T19:56:24.931Z,64.70
2022-09-20T19:58:53.383Z,63.90
2022-09-20T20:01:25.510Z,63.90
2022-09-20T20:03:55.213Z,63.70
2022-09-20T20:06:29.623Z,63.80
2022-09-20T20:09:25.642Z,63.90
2022-09-20T20:12:02.038Z,64.00
2022-09-20T20:14:58.675Z,63.70
2022-09-20T20:17:49.526Z,63.70
2022-09-20T20:20:44.794Z,63.90
2022-09-20T20:23:42.605Z,64.10
2022-09-20T20:26:25.845Z,64.20
2022-09-20T20:28:53.673Z,64.10
2022-09-20T20:31:21.227Z,64.40
2022-09-20T20:33:49.030Z,64.20
2022-09-20T20:36:17.440Z,64.20
2022-09-20T20:38:49.770Z,64.30
2022-09-20T20:41:19.438Z,64.40
2022-09-20T20:43:48.263Z,64.40
2022-09-20T20:46:18.782Z,64.60
2022-09-20T20:48:48.345Z,64.60
2022-09-20T20:51:21.076Z,64.80
2022-09-20T20:53:53.331Z,64.80
2022-09-20T20:56:25.954Z,65.00
2022-09-20T20:58:53.107Z,64.90
2022-09-20T21:01:22.113Z,64.80
2022-09-20T21:03:52.880Z,64.90
2022-09-20T21:06:21.615Z,65.00
2022-09-20T21:08:49.927Z,65.00
2022-09-20T21:11:26.386Z,65.20
2022-09-20T21:13:58.771Z,65.10
2022-09-20T21:16:38.097Z,65.30
2022-09-20T21:19:06.597Z,65.50
2022-09-20T21:21:36.727Z,65.50
2022-09-20T21:24:07.122Z,66.50
2022-09-20T21:26:35.727Z,65.80
2022-09-20T21:29:05.313Z,65.60
2022-09-20T21:31:34.993Z,65.70
2022-09-20T21:34:04.172Z,65.60
2022-09-20T21:36:31.796Z,65.70
2022-09-20T21:38:58.777Z,65.70
2022-09-20T21:41:31.942Z,65.60
2022-09-20T21:44:02.646Z,65.70
2022-09-20T21:46:32.766Z,65.60
2022-09-20T21:49:03.585Z,65.60
2022-09-20T21:51:31.537Z,65.50
2022-09-20T21:54:01.760Z,65.70
2022-09-20T21:56:31.584Z,65.90
2022-09-20T21:58:59.496Z,65.60
2022-09-20T22:01:28.351Z,65.50
2022-09-20T22:04:00.300Z,65.40
2022-09-20T22:06:32.693Z,65.40
2022-09-20T22:09:06.328Z,65.60
2022-09-20T22:11:39.199Z,65.50
2022-09-20T22:14:06.973Z,65.50
2022-09-20T22:16:38.734Z,65.80
2022-09-20T22:19:07.907Z,65.80
2022-09-20T22:21:37.896Z,65.80
2022-09-20T22:24:07.924Z,65.80
2022-09-20T22:26:40.934Z,65.80
2022-09-20T22:29:08.059Z,65.90
2022-09-20T22:31:45.595Z,66.00
2022-09-20T22:34:21.120Z,66.20
2022-09-20T22:36:48.832Z,66.30
2022-09-20T22:39:16.119Z,66.30
2022-09-20T22:41:43.694Z,66.30
2022-09-20T22:44:11.252Z,66.30
2022-09-20T22:46:38.764Z,66.50
2022-09-20T22:49:07.213Z,66.60
2022-09-20T22:51:34.473Z,66.50
2022-09-20T22:54:06.862Z,66.80
2022-09-20T22:56:34.518Z,66.80
2022-09-20T22:59:06.197Z,66.80
2022-09-20T23:01:42.465Z,66.80
2022-09-20T23:04:15.021Z,66.80
2022-09-20T23:06:55.308Z,66.80
2022-09-20T23:09:25.068Z,66.90
2022-09-20T23:11:52.402Z,66.90
2022-09-20T23:14:20.887Z,67.00
2022-09-20T23:16:48.469Z,67.00
2022-09-20T23:19:16.062Z,67.10
2022-09-20T23:21:43.787Z,67.10
2022-09-20T23:24:16.104Z,67.10
2022-09-20T23:26:44.323Z,67.30
2022-09-20T23:29:13.858Z,67.20
2022-09-20T23:31:45.744Z,67.20
2022-09-20T23:34:15.021Z,67.10
2022-09-20T23:36:42.916Z,67.10
2022-09-20T23:39:10.876Z,67.10
2022-09-20T23:41:38.749Z,67.20
2022-09-20T23:44:06.819Z,67.20
2022-09-20T23:46:34.724Z,67.10
2022-09-20T23:49:02.552Z,67.20
2022-09-20T23:51:31.498Z,67.20
2022-09-20T23:53:59.885Z,67.30
2022-09-20T23:56:28.921Z,67.40
2022-09-20T23:58:56.301Z,67.50
